Time;durP1;ratioP1;P1;durP2;ratioP2;P2;SDS_P1;SDS_P2;PMS_P1;PMS_P2;Temp;Humidity;BMP_temperature;BMP_pressure;BME280_temperature;BME280_humidity;BME280_pressure;Samples;Min_cycle;Max_cycle;Signal;HPM_P1;HPM_P2
2021/07/28 00:00:07;;;;;;;;;;;19.30;99.90;;;;;;5052157;28;19925;-75
2021/07/28 00:02:44;;;;;;;;;;;19.30;99.90;;;;;;5036327;28;19932;-75
2021/07/28 00:05:11;;;;;;;;;;;19.20;99.90;;;;;;5035569;28;20035;-75
2021/07/28 00:07:38;;;;;;;;;;;19.20;99.90;;;;;;5035784;28;20023;-75
2021/07/28 00:10:10;;;;;;;;;;;19.20;99.90;;;;;;5036156;28;20027;-74
2021/07/28 00:12:36;;;;;;;;;;;19.10;99.90;;;;;;5051649;28;20020;-75
2021/07/28 00:15:04;;;;;;;;;;;19.00;99.90;;;;;;5052333;28;19929;-75
2021/07/28 00:17:31;;;;;;;;;;;19.00;99.90;;;;;;5088400;28;19931;-75
2021/07/28 00:20:02;;;;;;;;;;;18.90;99.90;;;;;;5055173;28;20030;-75
2021/07/28 00:25:19;;;;;;;;;;;19.00;99.90;;;;;;5071849;28;20023;-75
2021/07/28 00:27:46;;;;;;;;;;;19.00;99.90;;;;;;5055281;28;20039;-75
2021/07/28 00:30:18;;;;;;;;;;;19.10;99.90;;;;;;5056053;28;20290;-75
2021/07/28 00:32:45;;;;;;;;;;;19.10;99.90;;;;;;5071622;28;19975;-76
2021/07/28 00:35:12;;;;;;;;;;;19.00;99.90;;;;;;5071739;28;20178;-75
2021/07/28 00:37:45;;;;;;;;;;;19.00;99.90;;;;;;5071539;28;19975;-75
2021/07/28 00:40:17;;;;;;;;;;;18.90;99.90;;;;;;5055893;28;19964;-75
2021/07/28 00:42:49;;;;;;;;;;;19.00;99.90;;;;;;5071263;28;19925;-75
2021/07/28 00:45:15;;;;;;;;;;;19.00;99.90;;;;;;5055002;28;20032;-75
2021/07/28 00:47:42;;;;;;;;;;;18.90;99.90;;;;;;5054778;28;20385;-75
2021/07/28 00:50:14;;;;;;;;;;;18.90;99.90;;;;;;5071672;28;19967;-75
2021/07/28 00:52:49;;;;;;;;;;;19.00;99.90;;;;;;5071292;28;19971;-75
2021/07/28 00:55:21;;;;;;;;;;;18.90;99.90;;;;;;5071384;28;19928;-75
2021/07/28 00:57:53;;;;;;;;;;;19.00;99.90;;;;;;5055421;28;19928;-76
2021/07/28 01:00:20;;;;;;;;;;;18.90;99.90;;;;;;5070984;28;19967;-75
2021/07/28 01:02:46;;;;;;;;;;;18.90;99.90;;;;;;5054489;28;20027;-75
2021/07/28 01:05:18;;;;;;;;;;;18.90;99.90;;;;;;5054701;28;19925;-75
2021/07/28 01:07:50;;;;;;;;;;;18.90;99.90;;;;;;5054836;28;20012;-75
2021/07/28 01:10:22;;;;;;;;;;;18.90;99.90;;;;;;5054655;28;19978;-75
2021/07/28 01:12:55;;;;;;;;;;;18.90;99.90;;;;;;5053932;28;19978;-75
2021/07/28 01:18:01;;;;;;;;;;;18.70;99.90;;;;;;5070934;28;19976;-75
2021/07/28 01:20:32;;;;;;;;;;;18.80;99.90;;;;;;5070605;28;19928;-75
2021/07/28 01:23:05;;;;;;;;;;;18.80;99.90;;;;;;5071136;28;20038;-75
2021/07/28 01:25:37;;;;;;;;;;;18.70;99.90;;;;;;5071242;28;20027;-75
2021/07/28 01:28:04;;;;;;;;;;;18.70;99.90;;;;;;5071115;28;20383;-75
2021/07/28 01:30:31;;;;;;;;;;;18.60;99.90;;;;;;5070646;28;19924;-75
2021/07/28 01:33:02;;;;;;;;;;;18.60;99.90;;;;;;5054291;28;20010;-75
2021/07/28 01:35:35;;;;;;;;;;;18.60;99.90;;;;;;5069966;28;20363;-75
2021/07/28 01:38:03;;;;;;;;;;;18.50;99.90;;;;;;5070277;28;19924;-75
2021/07/28 01:40:38;;;;;;;;;;;18.50;99.90;;;;;;5054480;28;20390;-75
2021/07/28 01:43:12;;;;;;;;;;;18.40;99.90;;;;;;5070812;28;19925;-75
2021/07/28 01:45:44;;;;;;;;;;;18.40;99.90;;;;;;5071746;28;19924;-75
2021/07/28 01:48:16;;;;;;;;;;;18.50;99.90;;;;;;5054950;28;20457;-75
2021/07/28 01:50:47;;;;;;;;;;;18.40;99.90;;;;;;5070654;28;19967;-75
2021/07/28 01:53:19;;;;;;;;;;;18.50;99.90;;;;;;5070246;28;20005;-75
2021/07/28 01:55:46;;;;;;;;;;;18.50;99.90;;;;;;5054180;28;20023;-75
2021/07/28 01:58:13;;;;;;;;;;;18.50;99.90;;;;;;5054106;28;19928;-75
2021/07/28 02:00:44;;;;;;;;;;;18.50;99.90;;;;;;5054611;28;20019;-75
2021/07/28 02:03:11;;;;;;;;;;;18.50;99.90;;;;;;5070405;28;19971;-75
2021/07/28 02:05:41;;;;;;;;;;;18.50;99.90;;;;;;5070660;28;20470;-74
2021/07/28 02:08:14;;;;;;;;;;;18.40;99.90;;;;;;5070712;28;20196;-75
2021/07/28 02:10:42;;;;;;;;;;;18.50;99.90;;;;;;5070461;28;20382;-76
2021/07/28 02:13:09;;;;;;;;;;;18.50;99.90;;;;;;5070338;28;19924;-75
2021/07/28 02:15:36;;;;;;;;;;;18.40;99.90;;;;;;5071802;28;19956;-75
2021/07/28 02:18:08;;;;;;;;;;;18.30;99.90;;;;;;5070586;28;19924;-75
2021/07/28 02:20:35;;;;;;;;;;;18.30;99.90;;;;;;5053732;28;20379;-75
2021/07/28 02:23:02;;;;;;;;;;;18.30;99.90;;;;;;5053633;28;19974;-75
2021/07/28 02:25:29;;;;;;;;;;;18.30;99.90;;;;;;5074964;28;20023;-75
2021/07/28 02:28:00;;;;;;;;;;;18.30;99.90;;;;;;5074514;28;19960;-75
2021/07/28 02:30:27;;;;;;;;;;;18.20;99.90;;;;;;5057812;28;20019;-75
2021/07/28 02:32:54;;;;;;;;;;;18.10;99.90;;;;;;5073744;28;19924;-75
2021/07/28 02:35:21;;;;;;;;;;;18.10;99.90;;;;;;5057409;28;20020;-75
2021/07/28 02:37:52;;;;;;;;;;;18.00;99.90;;;;;;5057970;28;19991;-75
2021/07/28 02:40:24;;;;;;;;;;;18.00;99.90;;;;;;5058208;28;20026;-75
2021/07/28 02:42:51;;;;;;;;;;;17.90;99.90;;;;;;5073622;28;19960;-75
2021/07/28 02:45:17;;;;;;;;;;;17.90;99.90;;;;;;5057026;28;20444;-75
2021/07/28 02:47:44;;;;;;;;;;;17.90;99.90;;;;;;5074158;28;19924;-75
2021/07/28 02:50:12;;;;;;;;;;;18.00;99.90;;;;;;5073925;28;19964;-75
2021/07/28 02:52:39;;;;;;;;;;;18.10;99.90;;;;;;5073626;28;20314;-75
2021/07/28 02:55:06;;;;;;;;;;;18.00;99.90;;;;;;5073834;28;20011;-75
2021/07/28 02:57:33;;;;;;;;;;;18.00;99.90;;;;;;5075113;28;19939;-75
2021/07/28 03:00:05;;;;;;;;;;;18.00;99.90;;;;;;5057740;28;20362;-75
2021/07/28 03:02:32;;;;;;;;;;;18.00;99.90;;;;;;5073298;28;19963;-76
2021/07/28 03:05:04;;;;;;;;;;;18.10;99.90;;;;;;5073634;28;19967;-75
2021/07/28 03:07:33;;;;;;;;;;;18.00;99.90;;;;;;5073420;28;19925;-76
2021/07/28 03:10:00;;;;;;;;;;;18.00;99.90;;;;;;5056900;28;19963;-75
2021/07/28 03:12:27;;;;;;;;;;;18.00;99.90;;;;;;5056766;28;19935;-75
2021/07/28 03:14:54;;;;;;;;;;;18.00;99.90;;;;;;5056745;28;20007;-75
2021/07/28 03:17:26;;;;;;;;;;;17.90;99.90;;;;;;5074498;28;19967;-76
2021/07/28 03:19:58;;;;;;;;;;;18.00;99.90;;;;;;5074713;28;20006;-75
2021/07/28 03:22:25;;;;;;;;;;;18.00;99.90;;;;;;5072998;28;20027;-75
2021/07/28 03:24:57;;;;;;;;;;;18.00;99.90;;;;;;5073312;28;20485;-75
2021/07/28 03:27:23;;;;;;;;;;;18.00;99.90;;;;;;5056486;28;19985;-75
2021/07/28 03:29:50;;;;;;;;;;;18.00;99.90;;;;;;5056483;28;19951;-75
2021/07/28 03:32:22;;;;;;;;;;;18.00;99.90;;;;;;5072385;28;19946;-75
2021/07/28 03:34:48;;;;;;;;;;;18.10;99.90;;;;;;5055942;28;20012;-75
2021/07/28 03:37:15;;;;;;;;;;;18.10;99.90;;;;;;5055073;28;20477;-76
2021/07/28 03:39:41;;;;;;;;;;;18.20;99.90;;;;;;5072198;28;20007;-75
2021/07/28 03:42:08;;;;;;;;;;;18.20;99.90;;;;;;5055448;28;20014;-75
2021/07/28 03:44:35;;;;;;;;;;;18.10;99.90;;;;;;5071869;28;19963;-76
2021/07/28 03:47:02;;;;;;;;;;;18.10;99.90;;;;;;5055514;28;20019;-76
2021/07/28 03:49:28;;;;;;;;;;;18.10;99.90;;;;;;5055833;28;20023;-75
2021/07/28 03:51:55;;;;;;;;;;;18.10;99.90;;;;;;5055133;28;19924;-74
2021/07/28 03:54:21;;;;;;;;;;;18.10;99.90;;;;;;5073189;28;20392;-74
2021/07/28 03:56:48;;;;;;;;;;;18.10;99.90;;;;;;5055162;28;19925;-75
2021/07/28 03:59:20;;;;;;;;;;;18.10;99.90;;;;;;5073092;28;19928;-75
2021/07/28 04:01:46;;;;;;;;;;;18.20;99.90;;;;;;5054415;28;19970;-75
2021/07/28 04:04:13;;;;;;;;;;;18.20;99.90;;;;;;5055124;28;19975;-75
2021/07/28 04:06:45;;;;;;;;;;;18.10;99.90;;;;;;5067957;28;19939;-75
2021/07/28 04:09:16;;;;;;;;;;;18.00;99.90;;;;;;5051836;28;20027;-76
2021/07/28 04:11:48;;;;;;;;;;;18.00;99.90;;;;;;5040873;28;20215;-75
2021/07/28 04:14:23;;;;;;;;;;;17.90;99.90;;;;;;5034930;28;19928;-76
2021/07/28 04:16:49;;;;;;;;;;;17.90;99.90;;;;;;5034050;28;19980;-74
2021/07/28 04:19:16;;;;;;;;;;;17.90;99.90;;;;;;5052594;28;20409;-75
2021/07/28 04:21:48;;;;;;;;;;;18.00;99.90;;;;;;5035222;28;19924;-75
2021/07/28 04:24:20;;;;;;;;;;;18.00;99.90;;;;;;5050895;28;20019;-75
2021/07/28 04:26:46;;;;;;;;;;;18.00;99.90;;;;;;5034271;28;20027;-75
2021/07/28 04:29:13;;;;;;;;;;;18.00;99.90;;;;;;5050697;28;19982;-75
2021/07/28 04:31:45;;;;;;;;;;;18.00;99.90;;;;;;5050260;28;20027;-75
2021/07/28 04:34:11;;;;;;;;;;;18.00;99.90;;;;;;5051076;28;19931;-75
2021/07/28 04:36:43;;;;;;;;;;;18.00;99.90;;;;;;5035484;28;19929;-77
2021/07/28 04:39:10;;;;;;;;;;;18.10;99.90;;;;;;5052629;28;20043;-75
2021/07/28 04:41:37;;;;;;;;;;;18.10;99.90;;;;;;5040410;28;19998;-76
2021/07/28 04:44:08;;;;;;;;;;;18.10;99.90;;;;;;5050887;28;20015;-74
2021/07/28 04:46:40;;;;;;;;;;;18.10;99.90;;;;;;5040128;28;20465;-75
2021/07/28 04:49:06;;;;;;;;;;;18.20;99.90;;;;;;5070015;28;20379;-75
2021/07/28 04:51:34;;;;;;;;;;;18.20;99.90;;;;;;5053698;28;20019;-76
2021/07/28 04:54:05;;;;;;;;;;;18.20;99.90;;;;;;5070915;28;20023;-75
2021/07/28 04:56:37;;;;;;;;;;;18.20;99.90;;;;;;5055003;28;20026;-75
2021/07/28 04:59:04;;;;;;;;;;;18.30;99.90;;;;;;5054060;28;19963;-76
2021/07/28 05:01:30;;;;;;;;;;;18.30;99.90;;;;;;5070552;28;19932;-76
2021/07/28 05:04:03;;;;;;;;;;;18.20;99.90;;;;;;5071733;28;19924;-76
2021/07/28 05:06:35;;;;;;;;;;;18.20;99.90;;;;;;5070418;28;20019;-75
2021/07/28 05:09:01;;;;;;;;;;;18.20;99.90;;;;;;5071825;28;20377;-76
2021/07/28 05:11:28;;;;;;;;;;;18.20;99.90;;;;;;5087043;28;20030;-75
2021/07/28 05:13:59;;;;;;;;;;;18.20;99.90;;;;;;5070788;28;20102;-75
2021/07/28 05:16:31;;;;;;;;;;;18.20;99.90;;;;;;5087570;28;20386;-75
2021/07/28 05:19:03;;;;;;;;;;;18.20;99.90;;;;;;5054810;28;20027;-75
2021/07/28 05:21:29;;;;;;;;;;;18.20;99.90;;;;;;5070179;28;19956;-75
2021/07/28 05:23:56;;;;;;;;;;;18.20;99.90;;;;;;5070866;28;19924;-75
2021/07/28 05:26:28;;;;;;;;;;;18.20;99.90;;;;;;5071106;28;19924;-75
2021/07/28 05:28:54;;;;;;;;;;;18.20;99.90;;;;;;5070148;28;19956;-74
2021/07/28 05:31:21;;;;;;;;;;;18.20;99.90;;;;;;5069630;28;19960;-75
2021/07/28 05:33:48;;;;;;;;;;;18.30;99.90;;;;;;5069807;28;19933;-75
2021/07/28 05:36:19;;;;;;;;;;;18.20;99.90;;;;;;5071145;28;20374;-74
2021/07/28 05:38:51;;;;;;;;;;;18.30;99.90;;;;;;5069843;28;19925;-75
2021/07/28 05:41:18;;;;;;;;;;;18.30;99.90;;;;;;5069670;28;19974;-75
2021/07/28 05:43:49;;;;;;;;;;;18.30;99.90;;;;;;5069659;28;19924;-75
2021/07/28 05:46:16;;;;;;;;;;;18.40;99.90;;;;;;5086445;28;19928;-75
2021/07/28 05:48:48;;;;;;;;;;;18.40;99.90;;;;;;5070105;28;19924;-75
2021/07/28 05:51:14;;;;;;;;;;;18.40;99.90;;;;;;5070718;28;20023;-75
2021/07/28 05:53:41;;;;;;;;;;;18.40;99.90;;;;;;5069586;28;19978;-75
2021/07/28 05:56:08;;;;;;;;;;;18.40;99.90;;;;;;5069899;28;19928;-75
2021/07/28 05:58:39;;;;;;;;;;;18.40;99.90;;;;;;5069930;28;19924;-75
2021/07/28 06:01:06;;;;;;;;;;;18.40;99.90;;;;;;5090435;28;19975;-75
2021/07/28 06:03:33;;;;;;;;;;;18.40;99.90;;;;;;5073132;28;20393;-75
2021/07/28 06:06:04;;;;;;;;;;;18.40;99.90;;;;;;5073929;28;20027;-75
2021/07/28 06:08:31;;;;;;;;;;;18.40;99.90;;;;;;5073878;28;19932;-75
2021/07/28 06:11:03;;;;;;;;;;;18.50;99.90;;;;;;5073282;28;19947;-75
2021/07/28 06:13:29;;;;;;;;;;;18.50;99.90;;;;;;5090549;28;19974;-76
2021/07/28 06:15:56;;;;;;;;;;;18.60;99.90;;;;;;5073428;28;19981;-75
2021/07/28 06:18:23;;;;;;;;;;;18.60;99.90;;;;;;5073449;28;19970;-75
2021/07/28 06:20:49;;;;;;;;;;;18.60;99.90;;;;;;5073405;28;20358;-75
2021/07/28 06:23:22;;;;;;;;;;;18.70;99.90;;;;;;5089656;28;20027;-75
2021/07/28 06:25:49;;;;;;;;;;;18.70;99.90;;;;;;5090053;28;19925;-76
2021/07/28 06:28:16;;;;;;;;;;;18.80;99.90;;;;;;5073468;28;19970;-75
2021/07/28 06:30:42;;;;;;;;;;;18.80;99.90;;;;;;5073372;28;20457;-75
2021/07/28 06:33:09;;;;;;;;;;;18.70;99.90;;;;;;5072866;28;19925;-75
2021/07/28 06:35:36;;;;;;;;;;;18.80;99.90;;;;;;5073412;28;19929;-75
2021/07/28 06:38:07;;;;;;;;;;;18.80;99.90;;;;;;5072905;28;19982;-75
2021/07/28 06:40:39;;;;;;;;;;;18.80;99.90;;;;;;5072937;28;19993;-75
2021/07/28 06:43:06;;;;;;;;;;;18.90;99.90;;;;;;5072635;28;20293;-75
2021/07/28 06:45:34;;;;;;;;;;;18.90;99.90;;;;;;5089733;28;20317;-75
2021/07/28 06:48:01;;;;;;;;;;;18.90;99.90;;;;;;5090111;28;19928;-74
2021/07/28 06:50:33;;;;;;;;;;;19.00;99.90;;;;;;5072792;28;19966;-74
2021/07/28 06:53:00;;;;;;;;;;;19.00;99.90;;;;;;5072551;28;19978;-75
2021/07/28 06:55:32;;;;;;;;;;;19.00;99.90;;;;;;5073026;28;19977;-75
2021/07/28 06:57:58;;;;;;;;;;;19.00;99.90;;;;;;5089655;28;19963;-76
2021/07/28 07:00:32;;;;;;;;;;;19.00;99.90;;;;;;5072848;28;19924;-75
2021/07/28 07:03:04;;;;;;;;;;;19.00;99.90;;;;;;5072324;28;20344;-75
2021/07/28 07:05:31;;;;;;;;;;;19.00;99.90;;;;;;5072343;28;19978;-75
2021/07/28 07:07:57;;;;;;;;;;;19.00;99.90;;;;;;5072518;28;19951;-75
2021/07/28 07:10:29;;;;;;;;;;;19.10;99.90;;;;;;5071714;28;20746;-75
2021/07/28 07:13:03;;;;;;;;;;;19.10;99.90;;;;;;5069017;28;20458;-75
2021/07/28 07:15:30;;;;;;;;;;;19.10;99.90;;;;;;5073538;28;19990;-75
2021/07/28 07:17:57;;;;;;;;;;;19.20;99.90;;;;;;5055600;28;19962;-76
2021/07/28 07:20:28;;;;;;;;;;;19.30;99.90;;;;;;5056090;28;19928;-74
2021/07/28 07:22:55;;;;;;;;;;;19.30;99.90;;;;;;5071717;28;19928;-75
2021/07/28 07:25:22;;;;;;;;;;;19.20;99.90;;;;;;5055421;28;19986;-75
2021/07/28 07:27:48;;;;;;;;;;;19.20;99.90;;;;;;5071326;28;20015;-75
2021/07/28 07:30:15;;;;;;;;;;;19.20;99.90;;;;;;5055156;28;19955;-75
2021/07/28 07:32:42;;;;;;;;;;;19.10;99.90;;;;;;5070673;28;20031;-75
2021/07/28 07:35:08;;;;;;;;;;;19.00;99.90;;;;;;5054364;28;19975;-75
2021/07/28 07:37:40;;;;;;;;;;;18.90;99.90;;;;;;5070178;28;19924;-75
2021/07/28 07:40:12;;;;;;;;;;;18.90;99.90;;;;;;5072399;28;20575;-75
2021/07/28 07:42:44;;;;;;;;;;;18.80;99.90;;;;;;5055848;28;19932;-74
2021/07/28 07:45:15;;;;;;;;;;;18.80;99.90;;;;;;5056267;28;19994;-75
2021/07/28 07:47:42;;;;;;;;;;;18.80;99.90;;;;;;5072143;28;20345;-75
2021/07/28 07:50:14;;;;;;;;;;;18.80;99.90;;;;;;5056503;28;19928;-75
2021/07/28 07:52:46;;;;;;;;;;;18.70;99.90;;;;;;5055547;28;19925;-75
2021/07/28 07:55:17;;;;;;;;;;;18.70;99.90;;;;;;5056045;28;20428;-75
2021/07/28 07:57:49;;;;;;;;;;;18.70;99.90;;;;;;5072889;28;20354;-75
2021/07/28 08:00:16;;;;;;;;;;;18.60;99.90;;;;;;5071993;28;19960;-76
2021/07/28 08:02:47;;;;;;;;;;;18.70;99.90;;;;;;5071378;28;20026;-75
2021/07/28 08:05:14;;;;;;;;;;;18.70;99.90;;;;;;5071838;28;19928;-76
2021/07/28 08:07:41;;;;;;;;;;;18.70;99.90;;;;;;5055349;28;19970;-76
2021/07/28 08:10:08;;;;;;;;;;;18.70;99.90;;;;;;5071744;28;19979;-75
2021/07/28 08:12:35;;;;;;;;;;;18.70;99.90;;;;;;5071157;28;19928;-75
2021/07/28 08:15:02;;;;;;;;;;;18.70;99.90;;;;;;5054637;28;19924;-75
2021/07/28 08:17:29;;;;;;;;;;;18.70;99.90;;;;;;5072715;28;20015;-75
2021/07/28 08:20:01;;;;;;;;;;;18.70;99.90;;;;;;5072179;28;19931;-75
2021/07/28 08:22:28;;;;;;;;;;;18.70;99.90;;;;;;5053880;28;19924;-75
2021/07/28 08:24:55;;;;;;;;;;;18.70;99.90;;;;;;5054350;28;20358;-75
2021/07/28 08:27:27;;;;;;;;;;;18.70;99.90;;;;;;5055075;28;19931;-75
2021/07/28 08:30:01;;;;;;;;;;;18.70;99.90;;;;;;5070541;28;20118;-75
2021/07/28 08:32:27;;;;;;;;;;;18.70;99.90;;;;;;5070596;28;20457;-76
2021/07/28 08:34:59;;;;;;;;;;;18.60;99.90;;;;;;5071726;28;19975;-76
2021/07/28 08:37:25;;;;;;;;;;;18.60;99.90;;;;;;5070798;28;19924;-75
2021/07/28 08:39:52;;;;;;;;;;;18.60;99.90;;;;;;5054216;28;19924;-76
2021/07/28 08:42:19;;;;;;;;;;;18.60;99.90;;;;;;5053949;28;19959;-75
2021/07/28 08:44:47;;;;;;;;;;;18.60;99.90;;;;;;5054036;28;19966;-75
2021/07/28 08:47:19;;;;;;;;;;;18.70;99.90;;;;;;5070563;28;20483;-76
2021/07/28 08:49:46;;;;;;;;;;;18.60;99.90;;;;;;5070968;28;19929;-76
2021/07/28 08:52:21;;;;;;;;;;;18.60;99.90;;;;;;5054715;28;19931;-76
2021/07/28 08:54:53;;;;;;;;;;;18.70;99.90;;;;;;5070550;28;19925;-76
2021/07/28 08:57:20;;;;;;;;;;;18.70;99.90;;;;;;5070826;28;20409;-76
2021/07/28 08:59:47;;;;;;;;;;;18.70;99.90;;;;;;5071044;28;19982;-76
2021/07/28 09:02:19;;;;;;;;;;;18.60;99.90;;;;;;5070502;28;19990;-76
2021/07/28 09:04:46;;;;;;;;;;;18.60;99.90;;;;;;5053766;28;19924;-76
2021/07/28 09:07:16;;;;;;;;;;;18.60;99.90;;;;;;5053857;28;19938;-76
2021/07/28 09:09:52;;;;;;;;;;;18.60;99.90;;;;;;5070544;28;19979;-76
2021/07/28 09:12:42;;;;;;;;;;;18.60;99.90;;;;;;5069672;28;19924;-76
2021/07/28 09:15:16;;;;;;;;;;;18.60;99.90;;;;;;5054779;28;19994;-76
2021/07/28 09:17:48;;;;;;;;;;;18.60;99.90;;;;;;5070445;28;19972;-76
2021/07/28 09:20:22;;;;;;;;;;;18.60;99.90;;;;;;5069834;28;19963;-75
2021/07/28 09:22:48;;;;;;;;;;;18.60;99.90;;;;;;5070702;28;20448;-76
2021/07/28 09:25:32;;;;;;;;;;;18.50;99.90;;;;;;5069427;28;19978;-76
2021/07/28 09:27:58;;;;;;;;;;;18.50;99.90;;;;;;5053051;28;19974;-75
2021/07/28 09:30:25;;;;;;;;;;;18.50;99.90;;;;;;5069654;28;19963;-76
2021/07/28 09:33:09;;;;;;;;;;;18.40;99.90;;;;;;5053305;28;20421;-75
2021/07/28 09:35:45;;;;;;;;;;;18.40;99.90;;;;;;5053049;28;20030;-75
2021/07/28 09:38:12;;;;;;;;;;;18.40;99.90;;;;;;5053444;28;19963;-75
2021/07/28 09:40:38;;;;;;;;;;;18.40;99.90;;;;;;5053408;28;19973;-75
2021/07/28 09:43:05;;;;;;;;;;;18.40;99.90;;;;;;5070005;28;20023;-75
2021/07/28 09:45:37;;;;;;;;;;;18.40;99.90;;;;;;5054033;28;20019;-75
2021/07/28 09:48:04;;;;;;;;;;;18.50;99.90;;;;;;5053215;28;19993;-75
2021/07/28 09:50:36;;;;;;;;;;;18.50;99.90;;;;;;5069564;28;19924;-75
2021/07/28 09:53:06;;;;;;;;;;;18.60;99.90;;;;;;5070811;28;19963;-75
2021/07/28 09:55:33;;;;;;;;;;;18.60;99.90;;;;;;5071748;28;20387;-75
2021/07/28 09:58:00;;;;;;;;;;;18.60;99.90;;;;;;5053156;28;20363;-75
2021/07/28 10:00:31;;;;;;;;;;;18.50;99.90;;;;;;5069626;28;19978;-75
2021/07/28 10:03:04;;;;;;;;;;;18.60;99.90;;;;;;5052925;28;19925;-75
2021/07/28 10:05:36;;;;;;;;;;;18.60;99.90;;;;;;5069516;28;20475;-75
2021/07/28 10:08:09;;;;;;;;;;;18.60;99.90;;;;;;5054031;28;19928;-75
2021/07/28 10:10:41;;;;;;;;;;;18.60;99.90;;;;;;5069952;28;20015;-75
2021/07/28 10:13:08;;;;;;;;;;;18.50;99.90;;;;;;5069755;28;20182;-75
2021/07/28 10:15:37;;;;;;;;;;;18.40;99.90;;;;;;5053986;28;19959;-75
2021/07/28 10:18:04;;;;;;;;;;;18.30;99.90;;;;;;5054525;28;19924;-75
2021/07/28 10:20:37;;;;;;;;;;;18.20;99.90;;;;;;5071225;28;20035;-74
2021/07/28 10:23:09;;;;;;;;;;;18.20;99.90;;;;;;5070292;28;19956;-75
2021/07/28 10:25:35;;;;;;;;;;;18.20;99.90;;;;;;5070138;28;19928;-75
2021/07/28 10:28:03;;;;;;;;;;;18.10;99.90;;;;;;5070495;28;19951;-75
2021/07/28 10:30:34;;;;;;;;;;;18.00;99.90;;;;;;5069976;28;20015;-75
2021/07/28 10:33:23;;;;;;;;;;;18.10;99.90;;;;;;5085130;28;19928;-75
2021/07/28 10:35:49;;;;;;;;;;;18.10;99.90;;;;;;5069764;28;20059;-75
2021/07/28 10:38:20;;;;;;;;;;;18.10;99.90;;;;;;5051849;28;20012;-75
2021/07/28 10:40:58;;;;;;;;;;;18.10;99.90;;;;;;5053509;28;20015;-75
2021/07/28 10:43:50;;;;;;;;;;;18.10;99.90;;;;;;5069831;28;20023;-75
2021/07/28 10:46:22;;;;;;;;;;;18.10;99.90;;;;;;5073206;28;19924;-75
2021/07/28 10:48:53;;;;;;;;;;;18.10;99.90;;;;;;5056849;28;20019;-75
2021/07/28 10:51:44;;;;;;;;;;;18.20;99.90;;;;;;5056283;28;20029;-75
2021/07/28 10:54:16;;;;;;;;;;;18.20;99.90;;;;;;5074314;28;19929;-75
2021/07/28 10:57:04;;;;;;;;;;;18.10;99.90;;;;;;5056482;28;19928;-75
2021/07/28 10:59:39;;;;;;;;;;;18.10;99.90;;;;;;5073953;28;19967;-75
2021/07/28 11:02:06;;;;;;;;;;;18.10;99.90;;;;;;5056332;28;20665;-75
2021/07/28 11:04:38;;;;;;;;;;;18.00;99.90;;;;;;5058232;28;19925;-75
2021/07/28 11:07:05;;;;;;;;;;;17.90;99.90;;;;;;5071824;28;19936;-75
2021/07/28 11:09:37;;;;;;;;;;;17.80;99.90;;;;;;5071000;28;20027;-75
2021/07/28 11:12:04;;;;;;;;;;;17.80;99.90;;;;;;5068490;28;20011;-75
2021/07/28 11:14:32;;;;;;;;;;;17.90;99.90;;;;;;5054178;28;19929;-75
2021/07/28 11:17:03;;;;;;;;;;;17.90;99.90;;;;;;5073242;28;19978;-75
2021/07/28 11:19:46;;;;;;;;;;;17.80;99.90;;;;;;5073052;28;19960;-75
2021/07/28 11:22:14;;;;;;;;;;;17.80;99.90;;;;;;5054936;28;19924;-75
2021/07/28 11:24:40;;;;;;;;;;;17.90;99.90;;;;;;5054665;28;19990;-75
2021/07/28 11:27:11;;;;;;;;;;;18.00;99.90;;;;;;5071877;28;19967;-75
2021/07/28 11:29:42;;;;;;;;;;;18.10;99.90;;;;;;5056116;28;20366;-75
2021/07/28 11:32:21;;;;;;;;;;;18.10;99.90;;;;;;5071799;28;19925;-75
2021/07/28 11:34:55;;;;;;;;;;;18.10;99.90;;;;;;5055180;28;19971;-76
2021/07/28 11:37:21;;;;;;;;;;;18.20;99.90;;;;;;5071795;28;19932;-75
2021/07/28 11:39:49;;;;;;;;;;;18.20;99.90;;;;;;5072329;28;19974;-76
2021/07/28 11:42:25;;;;;;;;;;;18.20;99.90;;;;;;5071655;28;19998;-75
2021/07/28 11:44:52;;;;;;;;;;;18.20;99.90;;;;;;5072215;28;19978;-74
2021/07/28 11:47:22;;;;;;;;;;;18.20;99.90;;;;;;5055431;28;20325;-76
2021/07/28 11:49:59;;;;;;;;;;;18.20;99.90;;;;;;5055385;28;19928;-75
2021/07/28 11:52:26;;;;;;;;;;;18.20;99.90;;;;;;5054809;28;20348;-76
2021/07/28 11:54:53;;;;;;;;;;;18.30;99.90;;;;;;5055013;28;19924;-76
2021/07/28 11:57:20;;;;;;;;;;;18.30;99.90;;;;;;5071037;28;19956;-75
2021/07/28 11:59:46;;;;;;;;;;;18.30;99.90;;;;;;5055457;28;19951;-76
2021/07/28 12:02:20;;;;;;;;;;;18.40;99.90;;;;;;5054605;28;20425;-75
2021/07/28 12:04:48;;;;;;;;;;;18.50;99.90;;;;;;5055231;28;20380;-75
2021/07/28 12:07:16;;;;;;;;;;;18.50;99.90;;;;;;5071614;28;19932;-75
2021/07/28 12:09:58;;;;;;;;;;;18.50;99.90;;;;;;5072406;28;20014;-75
2021/07/28 12:12:28;;;;;;;;;;;18.40;99.90;;;;;;5051044;28;21210;-75
2021/07/28 12:15:08;;;;;;;;;;;18.40;99.90;;;;;;5055037;28;19929;-75
2021/07/28 12:17:35;;;;;;;;;;;18.40;99.90;;;;;;5072320;28;19965;-75
2021/07/28 12:20:12;;;;;;;;;;;18.50;99.90;;;;;;5068968;28;20387;-75
2021/07/28 12:22:45;;;;;;;;;;;18.50;99.90;;;;;;5053403;28;19925;-75
2021/07/28 12:25:14;;;;;;;;;;;18.50;99.90;;;;;;5065962;28;19924;-75
2021/07/28 12:27:59;;;;;;;;;;;18.60;99.90;;;;;;5074148;28;20031;-75
2021/07/28 12:30:31;;;;;;;;;;;18.50;99.90;;;;;;5066579;28;19983;-75
2021/07/28 12:33:16;;;;;;;;;;;18.40;99.90;;;;;;5052452;28;20315;-75
2021/07/28 12:35:47;;;;;;;;;;;18.40;99.90;;;;;;5053109;28;19967;-75
2021/07/28 12:38:25;;;;;;;;;;;18.40;99.90;;;;;;5073991;28;20444;-76
2021/07/28 12:41:01;;;;;;;;;;;18.50;99.90;;;;;;5057993;28;19932;-75
2021/07/28 12:43:34;;;;;;;;;;;18.40;99.90;;;;;;5053633;28;19940;-75
2021/07/28 12:46:02;;;;;;;;;;;18.50;99.90;;;;;;5051399;28;19928;-75
2021/07/28 12:48:31;;;;;;;;;;;18.60;99.90;;;;;;5035568;28;19932;-75
2021/07/28 12:51:00;;;;;;;;;;;18.70;99.90;;;;;;5061671;28;19929;-75
2021/07/28 12:53:29;;;;;;;;;;;18.90;99.90;;;;;;5039347;28;19929;-75
2021/07/28 12:55:56;;;;;;;;;;;18.90;99.90;;;;;;5054602;28;19924;-74
2021/07/28 12:58:24;;;;;;;;;;;19.00;99.90;;;;;;5084117;28;19925;-75
2021/07/28 13:00:52;;;;;;;;;;;19.00;99.90;;;;;;5052390;28;19929;-75
2021/07/28 13:03:26;;;;;;;;;;;18.90;99.90;;;;;;5051867;28;20374;-75
2021/07/28 13:06:15;;;;;;;;;;;19.00;99.90;;;;;;5051914;28;19924;-75
2021/07/28 13:08:41;;;;;;;;;;;19.10;99.90;;;;;;5068147;28;19948;-75
2021/07/28 13:11:08;;;;;;;;;;;19.20;99.90;;;;;;5068466;28;19959;-75
2021/07/28 13:13:35;;;;;;;;;;;19.30;99.90;;;;;;5049831;28;19924;-75
2021/07/28 13:16:02;;;;;;;;;;;19.30;99.90;;;;;;5089181;28;19928;-74
2021/07/28 13:18:29;;;;;;;;;;;19.40;99.90;;;;;;5105685;28;19925;-75
2021/07/28 13:20:56;;;;;;;;;;;19.40;99.90;;;;;;5060024;28;19935;-75
2021/07/28 13:23:30;;;;;;;;;;;19.50;99.90;;;;;;5036287;28;19929;-75
2021/07/28 13:25:58;;;;;;;;;;;19.60;99.90;;;;;;5102654;28;20402;-75
2021/07/28 13:28:26;;;;;;;;;;;19.50;99.90;;;;;;5055397;28;19924;-75
2021/07/28 13:30:53;;;;;;;;;;;19.50;99.90;;;;;;5064152;28;19979;-75
2021/07/28 13:33:19;;;;;;;;;;;19.60;99.90;;;;;;5048949;28;20402;-75
2021/07/28 13:35:46;;;;;;;;;;;19.80;99.90;;;;;;5067191;28;19932;-75
2021/07/28 13:38:13;;;;;;;;;;;19.90;99.90;;;;;;5071664;28;19946;-75
2021/07/28 13:40:45;;;;;;;;;;;20.00;99.90;;;;;;5071859;28;20111;-75
2021/07/28 13:43:17;;;;;;;;;;;20.10;99.90;;;;;;5071794;28;19926;-75
2021/07/28 13:45:44;;;;;;;;;;;20.20;99.90;;;;;;5057794;28;19932;-75
2021/07/28 13:48:12;;;;;;;;;;;20.40;99.90;;;;;;5071444;28;20019;-75
2021/07/28 13:50:39;;;;;;;;;;;20.60;99.90;;;;;;5071426;28;19977;-75
2021/07/28 13:53:06;;;;;;;;;;;20.80;99.90;;;;;;5073072;28;19996;-75
2021/07/28 13:55:33;;;;;;;;;;;20.80;99.90;;;;;;5070348;28;19925;-74
2021/07/28 13:58:05;;;;;;;;;;;20.60;99.90;;;;;;5036297;28;19948;-75
2021/07/28 14:00:32;;;;;;;;;;;20.90;99.90;;;;;;5051524;28;19925;-75
2021/07/28 14:03:04;;;;;;;;;;;20.90;99.90;;;;;;5050998;28;19925;-75
2021/07/28 14:05:30;;;;;;;;;;;20.90;99.90;;;;;;5050638;28;19925;-75
2021/07/28 14:07:57;;;;;;;;;;;20.80;99.90;;;;;;5055548;28;20434;-76
2021/07/28 14:10:24;;;;;;;;;;;20.60;99.90;;;;;;5067843;28;20036;-75
2021/07/28 14:12:57;;;;;;;;;;;20.80;99.90;;;;;;5055440;28;20425;-75
2021/07/28 14:15:29;;;;;;;;;;;21.10;99.90;;;;;;5060252;28;20033;-75
2021/07/28 14:17:56;;;;;;;;;;;21.30;99.90;;;;;;5062877;28;19983;-76
2021/07/28 14:20:23;;;;;;;;;;;21.60;99.90;;;;;;5076809;28;19925;-75
2021/07/28 14:22:54;;;;;;;;;;;21.70;99.90;;;;;;5065376;28;19924;-75
2021/07/28 14:25:21;;;;;;;;;;;21.60;99.90;;;;;;5064186;28;19925;-75
2021/07/28 14:27:48;;;;;;;;;;;21.70;99.90;;;;;;5083340;28;20347;-75
2021/07/28 14:30:20;;;;;;;;;;;21.90;99.90;;;;;;5051151;28;20047;-75
2021/07/28 14:32:52;;;;;;;;;;;21.80;99.90;;;;;;5046879;28;19994;-75
2021/07/28 14:35:24;;;;;;;;;;;21.50;99.90;;;;;;5061760;28;19947;-75